Terminal Aerodrome Forecast
Issued by NWS

Home | Current Version | Previous Version | Text Only | Print | Product List | Glossary On
Versions: 1 2 3 4 5 6 7 8 9 10 11 12 13 14 15 16 17 18 19 20
000
FTUS45 KABQ 211400 AAA
TAFTCC
TAF AMD
KTCC 211500Z 2115/2212 VRB04KT P6SM OVC015
      TEMPO 2115/2117 BKN009
     FM211800 10011KT P6SM VCSH BKN040
      TEMPO 2122/2202 4SM -TSRA OVC030CB=

USA.gov is the U.S. government's official web portal to all federal, state and local government web resources and services.